Time;durP1;ratioP1;P1;durP2;ratioP2;P2;SDS_P1;SDS_P2;PMS_P1;PMS_P2;Temp;Humidity;BMP_temperature;BMP_pressure;BME280_temperature;BME280_humidity;BME280_pressure;Samples;Min_cycle;Max_cycle;Signal;HPM_P1;HPM_P2
2021/10/17 00:01:12;;;;;;;13.93;9.52;;;;;;;6.72;75.22;96609.78;5109881;28;20129;-72
2021/10/17 00:03:40;;;;;;;13.20;9.63;;;;;;;6.65;75.56;96609.34;5109559;27;20051;-72
2021/10/17 00:06:06;;;;;;;15.65;9.50;;;;;;;6.57;75.89;96606.44;5109788;28;20534;-73
2021/10/17 00:08:33;;;;;;;13.50;9.50;;;;;;;6.56;75.34;96608.34;5109323;27;20047;-73
2021/10/17 00:10:59;;;;;;;14.30;9.30;;;;;;;6.48;75.74;96609.78;5110308;27;20051;-74
2021/10/17 00:13:26;;;;;;;13.73;9.30;;;;;;;6.43;75.85;96612.53;5109030;27;20055;-75
2021/10/17 00:15:52;;;;;;;17.40;9.88;;;;;;;6.42;76.21;96608.22;5109865;28;20059;-73
2021/10/17 00:18:19;;;;;;;15.20;8.60;;;;;;;6.38;76.29;96615.28;5109111;28;20060;-73
2021/10/17 00:20:47;;;;;;;14.52;8.77;;;;;;;6.36;76.97;96617.44;5109238;28;20043;-73
2021/10/17 00:23:13;;;;;;;13.02;9.15;;;;;;;6.41;76.80;96605.78;5108107;28;20050;-73
2021/10/17 00:25:40;;;;;;;16.25;9.95;;;;;;;6.38;77.81;96615.28;5109027;28;20039;-73
2021/10/17 00:28:07;;;;;;;16.77;9.25;;;;;;;6.40;77.82;96617.69;5109441;28;20052;-72
2021/10/17 00:30:33;;;;;;;12.80;8.50;;;;;;;6.42;77.91;96624.44;5109013;28;20051;-73
2021/10/17 00:33:00;;;;;;;13.77;9.32;;;;;;;6.43;77.27;96620.66;5109474;27;20047;-73
2021/10/17 00:35:26;;;;;;;15.27;9.05;;;;;;;6.45;77.00;96628.47;5108774;28;20502;-74
2021/10/17 00:37:54;;;;;;;12.38;8.30;;;;;;;6.47;76.43;96623.56;5109088;28;20138;-74
2021/10/17 00:40:22;;;;;;;12.80;8.27;;;;;;;6.47;75.95;96621.69;5109294;27;20044;-73
2021/10/17 00:42:50;;;;;;;13.40;8.18;;;;;;;6.42;76.31;96632.56;5108773;27;20132;-73
2021/10/17 00:45:19;;;;;;;12.35;8.25;;;;;;;6.37;76.92;96634.47;5109175;28;20043;-73
2021/10/17 00:47:46;;;;;;;14.32;7.95;;;;;;;6.33;76.91;96631.56;5108028;28;20050;-73
2021/10/17 00:50:13;;;;;;;12.15;7.82;;;;;;;6.35;75.56;96636.66;5108486;27;20048;-73
2021/10/17 00:52:43;;;;;;;14.38;7.45;;;;;;;6.36;74.75;96632.88;5108559;27;20054;-73
2021/10/17 00:55:13;;;;;;;10.48;7.03;;;;;;;6.27;74.77;96624.59;5106613;27;20574;-72
2021/10/17 00:57:41;;;;;;;12.38;6.85;;;;;;;6.19;75.08;96633.28;5108547;27;20082;-73
2021/10/17 01:00:09;;;;;;;13.80;8.20;;;;;;;6.15;75.48;96643.06;5108341;27;20745;-73
2021/10/17 01:02:35;;;;;;;14.77;9.20;;;;;;;6.13;76.20;96634.44;5108775;27;20527;-73
2021/10/17 01:05:02;;;;;;;13.40;9.07;;;;;;;6.13;76.51;96635.22;5108276;27;20051;-72
2021/10/17 01:07:29;;;;;;;15.88;8.65;;;;;;;6.15;76.55;96632.22;5109071;27;20054;-73
2021/10/17 01:09:56;;;;;;;23.42;11.18;;;;;;;6.14;76.86;96627.91;5108037;27;20051;-73
2021/10/17 01:12:23;;;;;;;16.98;9.27;;;;;;;6.15;77.33;96629.53;5108877;27;20046;-73
2021/10/17 01:14:50;;;;;;;18.15;9.35;;;;;;;6.14;77.60;96623.31;5108137;27;20040;-72
2021/10/17 01:17:16;;;;;;;17.90;9.55;;;;;;;6.14;78.01;96612.50;5108347;27;20043;-73
2021/10/17 01:19:47;;;;;;;20.05;10.55;;;;;;;6.12;78.43;96611.19;5108492;27;20047;-73
2021/10/17 01:22:14;;;;;;;17.55;10.02;;;;;;;6.11;78.69;96609.53;5107793;27;20043;-73
2021/10/17 01:24:41;;;;;;;17.20;9.50;;;;;;;6.10;78.91;96608.75;5109670;27;20040;-74
2021/10/17 01:27:07;;;;;;;17.20;9.63;;;;;;;6.08;78.38;96599.31;5107512;28;20040;-73
2021/10/17 01:29:34;;;;;;;22.27;11.05;;;;;;;6.02;77.95;96601.25;5108542;28;20494;-73
2021/10/17 01:32:00;;;;;;;22.35;12.43;;;;;;;5.95;78.41;96598.88;5107409;28;20858;-74
2021/10/17 01:34:27;;;;;;;21.88;11.80;;;;;;;5.90;78.24;96595.34;5108744;28;20119;-73
2021/10/17 01:36:55;;;;;;;22.10;12.23;;;;;;;5.85;78.11;96598.94;5107427;28;20779;-73
2021/10/17 01:39:23;;;;;;;22.55;11.38;;;;;;;5.82;78.21;96593.28;5108105;28;20054;-73
2021/10/17 01:41:50;;;;;;;18.92;10.00;;;;;;;5.78;78.70;96593.00;5107456;28;20490;-73
2021/10/17 01:44:25;;;;;;;17.23;9.90;;;;;;;5.75;78.49;96599.81;5107843;28;20048;-73
2021/10/17 01:46:51;;;;;;;16.67;10.57;;;;;;;5.73;78.56;96596.56;5108190;28;20183;-74
2021/10/17 01:49:18;;;;;;;15.32;9.05;;;;;;;5.69;78.52;96598.22;5107650;28;20047;-76
2021/10/17 01:51:45;;;;;;;13.30;8.30;;;;;;;5.65;78.31;96590.97;5108353;28;20047;-73
2021/10/17 01:54:12;;;;;;;14.80;9.10;;;;;;;5.63;78.27;96590.41;5107226;28;20043;-73
2021/10/17 01:56:40;;;;;;;13.75;8.63;;;;;;;5.57;78.04;96594.25;5108976;28;20054;-73
2021/10/17 01:59:07;;;;;;;13.38;8.68;;;;;;;5.54;78.23;96590.22;5106950;28;20047;-72
2021/10/17 02:01:33;;;;;;;12.60;8.25;;;;;;;5.49;78.37;96588.34;5109291;28;20054;-74
2021/10/17 02:04:01;;;;;;;16.27;9.07;;;;;;;5.47;78.63;96585.09;5112429;28;20051;-73
2021/10/17 02:06:28;;;;;;;13.57;8.88;;;;;;;5.45;78.59;96587.28;5111894;28;20070;-73
2021/10/17 02:08:55;;;;;;;19.60;9.85;;;;;;;5.38;78.65;96589.50;5111992;28;20046;-73
2021/10/17 02:11:22;;;;;;;18.48;9.77;;;;;;;5.35;78.79;96587.34;5111570;27;20058;-73
2021/10/17 02:13:49;;;;;;;18.27;10.10;;;;;;;5.37;78.69;96584.34;5112375;27;20047;-73
2021/10/17 02:16:16;;;;;;;23.23;9.63;;;;;;;5.35;79.04;96592.75;5111038;27;20522;-73
2021/10/17 02:18:43;;;;;;;15.82;10.07;;;;;;;5.39;78.73;96582.22;5111206;28;20051;-73
2021/10/17 02:21:10;;;;;;;17.20;10.25;;;;;;;5.33;78.98;96586.03;5110851;28;20048;-72
2021/10/17 02:23:36;;;;;;;18.65;9.40;;;;;;;5.30;78.58;96584.69;5112136;28;20055;-73
2021/10/17 02:26:03;;;;;;;16.05;9.90;;;;;;;5.26;78.84;96599.81;5111979;27;20047;-72
2021/10/17 02:28:31;;;;;;;15.68;10.32;;;;;;;5.30;79.13;96594.66;5112178;28;20051;-72
2021/10/17 02:30:58;;;;;;;16.90;10.23;;;;;;;5.27;79.29;96596.03;5111399;28;20520;-73
2021/10/17 02:33:24;;;;;;;16.75;10.40;;;;;;;5.26;78.61;96599.81;5110753;28;20498;-73
2021/10/17 02:35:51;;;;;;;14.95;9.95;;;;;;;5.22;78.69;96599.56;5111857;28;20042;-73
2021/10/17 02:38:17;;;;;;;19.08;9.18;;;;;;;5.18;78.34;96601.22;5110897;28;20051;-73
2021/10/17 02:40:44;;;;;;;17.23;9.68;;;;;;;5.14;78.31;96607.44;5111501;28;20043;-73
2021/10/17 02:43:11;;;;;;;17.67;10.15;;;;;;;5.16;78.65;96602.56;5111113;28;20043;-73
2021/10/17 02:45:39;;;;;;;17.58;10.25;;;;;;;5.18;78.82;96605.81;5112052;28;20051;-73
2021/10/17 02:48:06;;;;;;;28.77;9.07;;;;;;;5.22;78.25;96604.97;5110026;28;20047;-73
2021/10/17 02:50:32;;;;;;;26.13;9.23;;;;;;;5.18;78.13;96608.50;5111727;27;20040;-73
2021/10/17 02:52:59;;;;;;;13.60;8.35;;;;;;;5.12;78.27;96604.22;5111098;27;20470;-73
2021/10/17 02:55:25;;;;;;;21.40;9.18;;;;;;;5.08;78.47;96608.53;5111929;27;20047;-73
2021/10/17 02:57:52;;;;;;;27.80;8.73;;;;;;;4.97;78.06;96605.09;5111012;28;20730;-72
2021/10/17 03:00:19;;;;;;;21.75;8.52;;;;;;;4.90;78.55;96596.47;5111443;27;20051;-73
2021/10/17 03:02:46;;;;;;;21.60;9.63;;;;;;;4.89;79.23;96601.03;5111084;28;20047;-73
2021/10/17 03:05:13;;;;;;;33.67;9.70;;;;;;;4.87;79.20;96597.81;5110026;28;20051;-73
2021/10/17 03:07:40;;;;;;;20.55;10.07;;;;;;;4.93;79.78;96599.41;5111318;27;20094;-73
2021/10/17 03:10:08;;;;;;;32.33;10.68;;;;;;;5.02;79.71;96604.25;5109920;28;20040;-73
2021/10/17 03:12:34;;;;;;;21.33;10.55;;;;;;;5.04;79.91;96597.50;5110151;28;20048;-73
2021/10/17 03:15:01;;;;;;;19.25;9.57;;;;;;;5.08;79.98;96605.84;5109838;28;20566;-73
2021/10/17 03:17:28;;;;;;;19.85;9.70;;;;;;;5.16;79.20;96599.84;5110466;28;20040;-72
2021/10/17 03:19:56;;;;;;;17.58;9.63;;;;;;;5.15;79.10;96600.94;5110531;27;20055;-73
2021/10/17 03:22:22;;;;;;;18.13;8.93;;;;;;;5.07;79.21;96606.94;5109870;28;20040;-73
2021/10/17 03:24:49;;;;;;;16.35;9.07;;;;;;;5.02;79.04;96604.25;5111865;27;20044;-73
2021/10/17 03:27:15;;;;;;;13.85;8.32;;;;;;;4.91;78.38;96598.91;5109498;28;20040;-73
2021/10/17 03:29:41;;;;;;;14.27;8.63;;;;;;;4.87;78.61;96597.81;5111107;28;20577;-72
2021/10/17 03:32:08;;;;;;;12.65;7.90;;;;;;;4.92;77.88;96595.13;5109076;28;20506;-73
2021/10/17 03:34:34;;;;;;;10.68;6.90;;;;;;;4.87;77.89;96597.81;5111087;28;20527;-73
2021/10/17 03:37:02;;;;;;;12.50;7.28;;;;;;;4.79;78.23;96595.69;5109485;27;20048;-72
2021/10/17 03:39:29;;;;;;;11.85;7.13;;;;;;;4.76;77.98;96601.66;5110577;28;20039;-72
2021/10/17 03:41:55;;;;;;;12.85;6.97;;;;;;;4.73;77.42;96596.78;5109782;28;20042;-72
2021/10/17 03:44:22;;;;;;;13.75;7.43;;;;;;;4.69;77.97;96601.09;5109888;28;20055;-74
2021/10/17 03:46:48;;;;;;;12.90;7.80;;;;;;;4.68;77.90;96599.50;5110015;27;20054;-74
2021/10/17 03:49:15;;;;;;;12.23;8.30;;;;;;;4.60;78.05;96597.38;5109455;28;20043;-73
2021/10/17 03:51:41;;;;;;;13.30;8.43;;;;;;;4.62;78.48;96603.28;5110436;28;20048;-73
2021/10/17 03:54:09;;;;;;;16.67;9.05;;;;;;;4.54;78.52;96604.69;5108332;27;20043;-73
2021/10/17 03:56:35;;;;;;;24.17;9.23;;;;;;;4.53;78.84;96596.84;5110090;27;20040;-72
2021/10/17 03:59:02;;;;;;;14.90;9.23;;;;;;;4.58;79.37;96599.53;5107952;28;20051;-72
2021/10/17 04:01:30;;;;;;;19.70;7.95;;;;;;;4.63;78.59;96604.91;5110325;27;20052;-72
2021/10/17 04:03:56;;;;;;;12.43;7.72;;;;;;;4.61;78.74;96607.06;5109600;28;20044;-73
2021/10/17 04:06:23;;;;;;;13.35;8.35;;;;;;;4.54;78.90;96599.28;5109367;28;20044;-73
2021/10/17 04:08:49;;;;;;;16.40;8.43;;;;;;;4.48;79.24;96594.16;5109841;28;20064;-73
2021/10/17 04:11:17;;;;;;;20.98;9.10;;;;;;;4.41;79.31;96591.75;5109362;28;20047;-73
2021/10/17 04:13:43;;;;;;;15.13;8.27;;;;;;;4.43;79.85;96593.06;5109550;27;20048;-72
2021/10/17 04:16:10;;;;;;;17.17;9.57;;;;;;;4.50;80.78;96592.00;5107744;28;20047;-73
2021/10/17 04:18:37;;;;;;;23.35;9.52;;;;;;;4.58;80.55;96594.94;5110256;28;20497;-73
2021/10/17 04:21:03;;;;;;;16.30;8.55;;;;;;;4.59;80.06;96591.16;5109586;28;20831;-73
2021/10/17 04:23:30;;;;;;;19.63;8.68;;;;;;;4.49;80.42;96598.47;5109931;27;20046;-73
2021/10/17 04:25:56;;;;;;;17.70;8.35;;;;;;;4.47;80.90;96604.13;5123392;27;20047;-73
2021/10/17 04:28:24;;;;;;;15.55;8.70;;;;;;;4.47;81.11;96597.94;5129480;27;20051;-73
2021/10/17 04:30:51;;;;;;;20.52;9.73;;;;;;;4.40;80.73;96598.22;5129583;27;20031;-73
2021/10/17 04:33:17;;;;;;;24.95;10.70;;;;;;;4.42;81.25;96596.84;5129361;27;20039;-73
2021/10/17 04:35:45;;;;;;;27.42;10.95;;;;;;;4.49;81.87;96595.75;5130005;27;20047;-74
2021/10/17 04:38:13;;;;;;;30.33;10.82;;;;;;;4.59;81.86;96593.03;5128680;27;20406;-73
2021/10/17 04:40:42;;;;;;;18.23;10.32;;;;;;;4.61;81.40;96593.59;5129936;27;20047;-73
2021/10/17 04:43:09;;;;;;;22.40;10.82;;;;;;;4.64;81.25;96593.03;5129193;27;20050;-73
2021/10/17 04:45:37;;;;;;;19.70;11.40;;;;;;;4.68;81.48;96594.09;5130052;27;20047;-72
2021/10/17 04:48:04;;;;;;;30.88;10.80;;;;;;;4.74;81.14;96586.81;5129235;27;20080;-72
2021/10/17 04:50:31;;;;;;;20.88;10.73;;;;;;;4.76;81.13;96590.84;5129669;27;20043;-73
2021/10/17 04:52:57;;;;;;;27.00;11.70;;;;;;;4.81;81.16;96577.34;5128888;27;20047;-73
2021/10/17 04:55:24;;;;;;;47.67;13.35;;;;;;;4.80;80.73;96578.41;5118596;27;20055;-73
2021/10/17 04:57:50;;;;;;;22.80;11.88;;;;;;;4.86;81.45;96579.22;5108855;27;20058;-72
2021/10/17 05:00:17;;;;;;;30.52;12.85;;;;;;;4.89;81.53;96584.84;5108166;27;20074;-73
2021/10/17 05:02:45;;;;;;;35.45;12.48;;;;;;;4.93;81.50;96585.94;5109105;27;20047;-73
2021/10/17 05:05:11;;;;;;;37.33;13.75;;;;;;;4.95;81.38;96578.34;5107745;27;20043;-73
2021/10/17 05:07:39;;;;;;;33.13;12.73;;;;;;;4.96;81.44;96588.09;5109017;27;20047;-73
2021/10/17 05:10:06;;;;;;;36.38;11.88;;;;;;;4.92;81.39;96586.22;5107714;27;20043;-73
2021/10/17 05:12:33;;;;;;;49.40;13.68;;;;;;;4.87;81.35;96587.03;5109201;27;20047;-73
2021/10/17 05:15:00;;;;;;;42.03;13.13;;;;;;;4.91;81.68;96588.09;5108621;27;20131;-72
2021/10/17 05:17:26;;;;;;;33.50;12.43;;;;;;;4.93;81.33;96590.53;5108163;27;20040;-73
2021/10/17 05:19:54;;;;;;;47.60;12.63;;;;;;;4.89;80.27;96587.56;5108472;27;20048;-72
2021/10/17 05:22:20;;;;;;;29.98;13.73;;;;;;;4.94;80.16;96587.53;5107510;27;20047;-72
2021/10/17 05:24:47;;;;;;;35.92;12.88;;;;;;;5.00;79.97;96590.22;5109810;27;20046;-73
2021/10/17 05:27:13;;;;;;;19.02;12.20;;;;;;;4.95;79.90;96589.16;5107571;28;20047;-72
2021/10/17 05:29:40;;;;;;;40.00;12.57;;;;;;;4.90;80.01;96585.66;5108871;28;20047;-73
2021/10/17 05:32:07;;;;;;;33.38;13.63;;;;;;;4.88;80.29;96585.94;5106724;28;20054;-73
2021/10/17 05:34:33;;;;;;;38.58;13.30;;;;;;;4.93;80.44;96585.94;5108777;28;20051;-75
2021/10/17 05:37:01;;;;;;;21.10;13.55;;;;;;;5.00;80.99;96585.63;5116594;27;20043;-73
2021/10/17 05:39:27;;;;;;;32.05;13.13;;;;;;;5.04;80.93;96585.88;5124470;27;20042;-73
2021/10/17 05:41:54;;;;;;;34.00;13.23;;;;;;;5.06;80.85;96583.72;5107577;28;20805;-73
2021/10/17 05:44:20;;;;;;;42.42;13.52;;;;;;;5.04;80.92;96586.69;5108022;28;20499;-72
2021/10/17 05:46:47;;;;;;;20.05;12.30;;;;;;;5.06;80.88;96591.81;5107725;28;20752;-73
2021/10/17 05:49:13;;;;;;;41.58;13.48;;;;;;;5.03;80.77;96597.78;5107133;28;20123;-74
2021/10/17 05:51:40;;;;;;;37.80;13.07;;;;;;;5.02;80.60;96585.38;5108574;28;20043;-73
2021/10/17 05:54:08;;;;;;;32.72;13.00;;;;;;;5.00;80.07;96590.22;5106906;28;20549;-73
2021/10/17 05:56:34;;;;;;;28.35;11.88;;;;;;;4.89;79.73;96609.16;5109723;27;20059;-72
2021/10/17 05:59:01;;;;;;;33.58;11.50;;;;;;;4.83;79.59;96610.25;5107707;27;20406;-73
2021/10/17 06:01:27;;;;;;;41.17;13.50;;;;;;;4.82;80.08;96605.94;5108198;27;20043;-73
2021/10/17 06:03:54;;;;;;;42.83;14.57;;;;;;;4.89;80.36;96614.53;5107678;27;20043;-73
2021/10/17 06:06:20;;;;;;;30.48;14.23;;;;;;;4.93;80.52;96617.50;5107354;27;20044;-72
2021/10/17 06:08:47;;;;;;;33.85;14.07;;;;;;;4.96;80.59;96617.78;5107995;27;20051;-73
2021/10/17 06:11:15;;;;;;;53.38;14.35;;;;;;;4.97;80.87;96619.38;5106898;27;20051;-73
2021/10/17 06:13:41;;;;;;;31.33;12.73;;;;;;;5.03;80.32;96619.38;5107810;27;20044;-73
2021/10/17 06:16:08;;;;;;;57.47;12.98;;;;;;;5.06;80.15;96626.88;5106613;27;20040;-73
2021/10/17 06:18:34;;;;;;;57.20;12.52;;;;;;;4.90;78.82;96623.44;5108098;27;20052;-72
2021/10/17 06:21:02;;;;;;;39.78;12.05;;;;;;;4.77;79.01;96627.53;5107136;27;20051;-72
2021/10/17 06:23:28;;;;;;;27.70;12.48;;;;;;;4.81;80.12;96631.31;5107671;27;20047;-73
2021/10/17 06:25:55;;;;;;;28.20;11.50;;;;;;;4.79;80.11;96630.75;5108120;27;20047;-72
2021/10/17 06:28:22;;;;;;;36.95;11.85;;;;;;;4.81;79.74;96631.31;5107974;28;20483;-73
2021/10/17 06:30:49;;;;;;;38.22;11.93;;;;;;;4.84;79.97;96638.84;5107881;28;20044;-73
2021/10/17 06:33:16;;;;;;;21.10;10.98;;;;;;;4.87;80.44;96635.59;5106926;28;20055;-74
2021/10/17 06:35:42;;;;;;;22.38;11.73;;;;;;;4.83;80.79;96645.31;5107835;28;20576;-73
2021/10/17 06:38:09;;;;;;;16.38;11.07;;;;;;;4.86;80.81;96636.69;5107021;28;20699;-73
2021/10/17 06:40:36;;;;;;;20.30;11.80;;;;;;;4.89;81.02;96643.41;5107626;28;20051;-73
2021/10/17 06:43:03;;;;;;;21.20;10.27;;;;;;;4.97;79.78;96646.38;5106362;28;20044;-73
2021/10/17 06:45:30;;;;;;;17.95;10.70;;;;;;;5.00;80.24;96655.00;5107810;28;20549;-73
2021/10/17 06:47:57;;;;;;;19.63;11.88;;;;;;;5.00;80.17;96650.41;5108729;28;20043;-73
2021/10/17 06:50:23;;;;;;;17.92;11.20;;;;;;;5.09;80.38;96647.94;5111195;28;20039;-73
2021/10/17 06:52:50;;;;;;;19.38;11.80;;;;;;;5.08;80.11;96652.53;5109503;28;20708;-74
2021/10/17 06:55:17;;;;;;;18.83;12.10;;;;;;;5.16;80.27;96648.44;5111901;27;20070;-72
2021/10/17 06:57:45;;;;;;;19.50;13.20;;;;;;;5.23;81.07;96660.59;5111050;28;20047;-72
2021/10/17 07:00:12;;;;;;;17.40;11.43;;;;;;;5.24;78.47;96650.59;5110516;28;20585;-73
2021/10/17 07:02:40;;;;;;;31.40;11.27;;;;;;;5.09;78.56;96661.44;5111178;28;20043;-73
2021/10/17 07:05:07;;;;;;;21.90;12.40;;;;;;;5.05;79.06;96657.66;5109986;27;20039;-74
2021/10/17 07:07:34;;;;;;;18.85;11.57;;;;;;;5.06;80.02;96664.69;5111366;27;20055;-73
2021/10/17 07:10:01;;;;;;;18.40;11.60;;;;;;;5.04;79.77;96661.47;5110382;28;20043;-73
2021/10/17 07:12:28;;;;;;;21.35;11.23;;;;;;;5.03;79.21;96659.84;5110726;28;20054;-73
2021/10/17 07:14:55;;;;;;;23.75;12.50;;;;;;;5.07;79.82;96660.91;5110283;28;20054;-74
2021/10/17 07:17:21;;;;;;;17.35;12.05;;;;;;;5.15;81.11;96663.84;5110331;28;20051;-73
2021/10/17 07:19:49;;;;;;;17.55;12.07;;;;;;;5.28;81.25;96657.06;5110719;27;20069;-73
2021/10/17 07:22:16;;;;;;;16.30;11.35;;;;;;;5.41;79.68;96661.03;5110145;28;20437;-73
2021/10/17 07:24:42;;;;;;;16.00;11.40;;;;;;;5.52;79.90;96657.19;5112142;27;20189;-73
2021/10/17 07:27:09;;;;;;;15.93;11.13;;;;;;;5.61;78.96;96660.13;5109715;28;20047;-73
2021/10/17 07:29:35;;;;;;;18.30;11.60;;;;;;;5.65;78.59;96655.81;5111027;28;20064;-73
2021/10/17 07:32:02;;;;;;;16.92;10.88;;;;;;;5.78;78.92;96657.06;5109003;27;20047;-72
2021/10/17 07:34:29;;;;;;;16.05;10.98;;;;;;;5.89;78.75;96656.72;5111415;28;20078;-73
2021/10/17 07:36:56;;;;;;;17.25;11.20;;;;;;;5.90;77.70;96658.34;5109895;28;20048;-72
2021/10/17 07:39:23;;;;;;;16.75;11.80;;;;;;;5.95;78.35;96649.41;5110136;27;20059;-73
2021/10/17 07:41:49;;;;;;;20.45;12.48;;;;;;;6.04;79.19;96657.75;5109969;28;20039;-73
2021/10/17 07:44:17;;;;;;;31.70;12.13;;;;;;;6.07;78.86;96657.19;5110214;28;20050;-74
2021/10/17 07:46:43;;;;;;;26.60;13.25;;;;;;;5.95;77.61;96666.47;5110272;28;20046;-73
2021/10/17 07:49:10;;;;;;;19.20;13.15;;;;;;;6.08;78.16;96664.19;5109598;28;20051;-73
2021/10/17 07:51:37;;;;;;;25.00;15.55;;;;;;;6.18;77.80;96666.84;5110386;27;20063;-73
2021/10/17 07:54:05;;;;;;;24.15;15.23;;;;;;;6.26;78.54;96666.22;5109286;27;20047;-73
2021/10/17 07:56:31;;;;;;;22.10;14.20;;;;;;;6.31;78.16;96679.69;5111217;27;20100;-74
2021/10/17 07:58:57;;;;;;;19.77;13.07;;;;;;;6.38;78.65;96674.78;5108774;28;20113;-72
2021/10/17 08:01:25;;;;;;;20.77;13.77;;;;;;;6.51;79.76;96671.41;5109779;28;20044;-73
2021/10/17 08:03:51;;;;;;;23.95;15.63;;;;;;;6.69;79.37;96672.63;5109918;28;20047;-73
2021/10/17 08:06:18;;;;;;;23.13;15.18;;;;;;;6.92;78.97;96675.66;5109329;28;20054;-73
2021/10/17 08:08:45;;;;;;;21.48;14.15;;;;;;;7.14;78.60;96672.44;5110087;28;20051;-73
2021/10/17 08:11:12;;;;;;;21.05;14.15;;;;;;;7.33;78.77;96670.59;5109166;28;20483;-75
2021/10/17 08:13:39;;;;;;;22.23;14.75;;;;;;;7.54;76.71;96679.28;5109898;28;20078;-73
2021/10/17 08:16:06;;;;;;;22.48;14.88;;;;;;;7.74;75.94;96675.50;5108857;28;20485;-73
2021/10/17 08:18:32;;;;;;;19.40;13.00;;;;;;;7.87;76.24;96676.66;5110078;28;20047;-73
2021/10/17 08:20:59;;;;;;;20.08;12.52;;;;;;;8.01;75.22;96672.94;5108820;28;20054;-73
2021/10/17 08:23:25;;;;;;;17.00;12.13;;;;;;;8.13;74.38;96669.78;5109920;28;20518;-74
2021/10/17 08:25:52;;;;;;;16.88;12.25;;;;;;;8.28;74.75;96666.03;5108552;27;20047;-73
2021/10/17 08:28:19;;;;;;;16.58;10.98;;;;;;;8.22;72.82;96678.06;5109403;28;20039;-75
2021/10/17 08:30:48;;;;;;;16.77;11.85;;;;;;;8.13;74.77;96677.09;5108844;28;20040;-73
2021/10/17 08:33:15;;;;;;;15.40;11.02;;;;;;;8.08;74.50;96678.00;5108787;28;20068;-73
2021/10/17 08:35:42;;;;;;;16.20;11.50;;;;;;;8.08;74.67;96678.78;5109210;28;20062;-72
2021/10/17 08:38:08;;;;;;;15.20;11.45;;;;;;;8.20;75.17;96683.00;5108333;28;20782;-73
2021/10/17 08:40:35;;;;;;;15.68;11.63;;;;;;;8.35;74.64;96680.84;5109627;27;20054;-73
2021/10/17 08:43:02;;;;;;;14.23;10.45;;;;;;;8.58;75.02;96687.28;5108204;28;20039;-72
2021/10/17 08:45:30;;;;;;;13.75;10.55;;;;;;;8.80;74.70;96685.84;5109844;28;20040;-73
2021/10/17 08:47:59;;;;;;;14.63;10.95;;;;;;;8.97;74.17;96698.84;5108729;28;20403;-73
2021/10/17 08:50:26;;;;;;;15.38;11.48;;;;;;;9.17;73.69;96684.09;5108450;28;20043;-74
2021/10/17 08:52:52;;;;;;;16.90;11.07;;;;;;;9.30;73.20;96692.25;5108437;28;20526;-73
2021/10/17 08:55:19;;;;;;;14.68;10.80;;;;;;;9.43;72.63;96693.34;5109993;27;20060;-73
2021/10/17 08:57:45;;;;;;;14.43;10.57;;;;;;;9.49;72.09;96689.41;5109102;27;20054;-73
2021/10/17 09:00:30;;;;;;;11.48;9.70;;;;;;;9.53;71.67;96692.34;5108909;27;20062;-73
2021/10/17 09:02:57;;;;;;;12.93;10.00;;;;;;;9.63;71.42;96700.31;5109530;27;20043;-73
2021/10/17 09:05:36;;;;;;;12.95;9.60;;;;;;;9.79;71.31;96695.34;5107751;27;20052;-74
2021/10/17 09:08:03;;;;;;;12.60;9.88;;;;;;;9.78;70.66;96699.19;5108844;27;20051;-73
2021/10/17 09:10:30;;;;;;;12.15;9.02;;;;;;;9.78;71.58;96701.91;5108091;27;20044;-73
2021/10/17 09:13:08;;;;;;;12.13;9.43;;;;;;;9.79;70.90;96696.16;5107873;27;20053;-73
2021/10/17 09:15:36;;;;;;;12.05;9.63;;;;;;;9.82;71.62;96692.84;5108681;27;20486;-73
2021/10/17 09:18:08;;;;;;;12.85;9.07;;;;;;;9.85;71.33;96688.69;5108103;27;20477;-73
2021/10/17 09:20:36;;;;;;;12.60;9.35;;;;;;;9.85;69.93;96685.97;5109179;27;20048;-74
2021/10/17 09:23:04;;;;;;;12.10;9.82;;;;;;;9.97;70.61;96690.88;5107581;28;20487;-72
2021/10/17 09:25:33;;;;;;;12.18;9.23;;;;;;;10.04;69.46;96683.91;5110592;27;20406;-73
2021/10/17 09:27:59;;;;;;;13.82;9.55;;;;;;;10.06;69.08;96684.41;5108082;27;20523;-73
2021/10/17 09:30:26;;;;;;;13.18;10.13;;;;;;;10.02;69.12;96690.75;5108472;27;20043;-74
2021/10/17 09:33:10;;;;;;;12.35;8.88;;;;;;;10.21;70.38;96694.16;5108069;27;20047;-75
2021/10/17 09:35:37;;;;;;;11.82;9.40;;;;;;;10.25;69.98;96688.94;5107993;28;20089;-73
2021/10/17 09:38:04;;;;;;;12.68;9.40;;;;;;;10.25;69.91;96688.94;5108101;27;20544;-73
2021/10/17 09:40:33;;;;;;;12.65;9.23;;;;;;;10.31;69.22;96687.69;5107433;27;20050;-73
2021/10/17 09:43:05;;;;;;;11.85;8.98;;;;;;;10.43;69.42;96685.22;5108294;27;20035;-74
2021/10/17 09:45:31;;;;;;;11.20;8.82;;;;;;;10.50;70.84;96690.25;5107265;27;20096;-74
2021/10/17 09:47:59;;;;;;;11.95;8.50;;;;;;;10.37;68.28;96686.47;5108398;27;20048;-74
2021/10/17 09:50:26;;;;;;;11.90;8.63;;;;;;;10.33;69.56;96688.19;5107035;27;20438;-73
2021/10/17 09:53:01;;;;;;;12.48;8.70;;;;;;;10.41;70.55;96682.81;5108013;27;20406;-73
2021/10/17 09:55:29;;;;;;;13.32;9.95;;;;;;;10.49;69.01;96683.97;5109330;27;20100;-73
2021/10/17 09:57:55;;;;;;;15.80;10.23;;;;;;;10.55;70.99;96685.50;5107659;28;20051;-73
2021/10/17 10:00:22;;;;;;;12.32;9.65;;;;;;;10.64;70.66;96694.50;5107688;27;20095;-73
2021/10/17 10:02:51;;;;;;;13.35;9.93;;;;;;;10.66;70.07;96695.03;5108132;27;20048;-73
2021/10/17 10:05:21;;;;;;;13.55;10.25;;;;;;;10.69;70.52;96693.59;5108022;27;20059;-73
2021/10/17 10:07:51;;;;;;;13.38;9.98;;;;;;;10.84;70.60;96695.94;5107321;27;20074;-73
2021/10/17 10:10:19;;;;;;;13.65;10.70;;;;;;;10.90;69.26;96699.31;5107798;27;20040;-74
2021/10/17 10:12:47;;;;;;;13.65;10.00;;;;;;;10.96;69.92;96695.34;5107574;27;20047;-73
2021/10/17 10:15:15;;;;;;;14.88;9.98;;;;;;;11.15;71.01;96690.50;5107598;27;20465;-73
2021/10/17 10:17:43;;;;;;;15.82;10.27;;;;;;;11.25;71.02;96692.16;5108058;27;20051;-73
2021/10/17 10:20:10;;;;;;;13.80;9.82;;;;;;;11.31;68.91;96687.34;5107112;27;20055;-74
2021/10/17 10:22:38;;;;;;;13.07;9.45;;;;;;;11.32;68.48;96680.78;5109338;27;20096;-73
2021/10/17 10:25:06;;;;;;;13.55;9.27;;;;;;;11.29;68.76;96686.88;5112228;27;20049;-73
2021/10/17 10:27:37;;;;;;;13.05;9.75;;;;;;;11.19;68.72;96688.75;5112345;28;20426;-74
2021/10/17 10:30:22;;;;;;;12.10;9.20;;;;;;;11.16;68.93;96686.63;5110401;28;20043;-73
2021/10/17 10:33:15;;;;;;;13.73;9.82;;;;;;;11.14;69.17;96678.00;5091853;28;20160;-73
2021/10/17 10:36:12;;;;;;;13.07;9.83;;;;;;;11.09;69.21;96685.50;5091377;28;20047;-74
2021/10/17 10:39:18;;;;;;;13.80;10.00;;;;;;;11.12;70.12;96674.78;5090507;28;20615;-74
2021/10/17 10:42:15;;;;;;;16.35;11.25;;;;;;;11.15;71.37;96674.13;5091210;28;20710;-73
2021/10/17 10:44:41;;;;;;;14.95;10.82;;;;;;;11.23;70.25;96672.59;5090918;28;20032;-73
2021/10/17 10:47:26;;;;;;;17.75;12.88;;;;;;;11.38;70.64;96671.34;5091457;28;20044;-75
2021/10/17 10:49:54;;;;;;;17.88;13.45;;;;;;;11.50;70.84;96675.09;5091081;28;20746;-74
2021/10/17 10:52:43;;;;;;;15.27;11.55;;;;;;;11.60;70.28;96673.19;5089680;28;20048;-73
2021/10/17 10:55:12;;;;;;;18.00;11.88;;;;;;;11.70;70.23;96676.44;5099735;27;20048;-73
2021/10/17 10:57:41;;;;;;;14.77;11.05;;;;;;;11.82;70.11;96675.03;5111342;27;20074;-74
2021/10/17 11:00:09;;;;;;;16.00;11.77;;;;;;;11.80;68.88;96671.78;5110589;28;20047;-74
2021/10/17 11:02:38;;;;;;;14.52;10.75;;;;;;;11.75;69.43;96665.38;5111209;28;20379;-76
2021/10/17 11:05:09;;;;;;;15.70;11.52;;;;;;;11.70;70.12;96662.00;5109988;27;20043;-73
2021/10/17 11:07:40;;;;;;;16.27;12.05;;;;;;;11.60;69.78;96656.84;5111601;28;20096;-75
2021/10/17 11:10:49;;;;;;;15.82;12.20;;;;;;;11.60;70.42;96662.28;5109556;28;20093;-76
2021/10/17 11:13:29;;;;;;;18.02;12.95;;;;;;;11.64;70.38;96661.34;5110241;28;20518;-75
2021/10/17 11:15:57;;;;;;;16.05;12.38;;;;;;;11.71;70.31;96656.22;5110290;28;20066;-73
2021/10/17 11:18:31;;;;;;;17.25;12.45;;;;;;;11.80;70.13;96655.41;5109030;28;20055;-73
2021/10/17 11:20:59;;;;;;;16.73;12.13;;;;;;;11.79;70.59;96642.91;5110797;27;20059;-74
2021/10/17 11:23:27;;;;;;;17.17;12.50;;;;;;;11.80;69.60;96645.31;5109190;27;20047;-73
2021/10/17 11:25:56;;;;;;;14.73;11.35;;;;;;;11.76;70.34;96639.69;5111089;27;20090;-74
2021/10/17 11:28:24;;;;;;;16.90;11.93;;;;;;;11.83;70.78;96639.25;5108645;28;20039;-74
2021/10/17 11:31:01;;;;;;;16.23;11.88;;;;;;;11.85;70.00;96642.47;5110277;28;20050;-73